• Join FlightAware (Why Join?)
  • Login
  • US Flag 
11:06AM EDT


 

Airport Tracker/Info


-or-


 

Live Flight TrackerFlight Track Log ✈ SWA601 ✈ 26-Oct-2013 ✈ KPHX - KSAN

Flight Track Log - Related Links

Times and Time Zones

All times are in EDT time to prevent confusion due to time zone crossing. See the SWA601 flight status page for this flight to view local times or setup timezone preferences in your user account.

Time Position Orientation Groundspeed Altitude Reporting Facility
EDT Latitude Longitude Course Direction KTS MPH feet Rate Location/Type
10:28AM 33.4333 -111.9833 90° East 168 193 1,900  Level Phoenix TRACON
10:29AM 33.4333 -111.9333 90° East 205 236 3,700 2,460 Climbing Phoenix TRACON
10:30AM 33.4333 -111.8500 90° East 251 289 6,600 2,460 Climbing Phoenix TRACON
10:31AM 33.3939 -111.8419 170° South 259 298 7,800 2,280 Climbing Albuquerque Center
10:32AM 33.3447 -111.9100 229° Southwest 282 325 10,400 2,460 Climbing Albuquerque Center
10:33AM 33.2869 -112.0253 239° Southwest 346 398 12,900 2,640 Climbing Albuquerque Center
10:34AM 33.2350 -112.1269 239° Southwest 356 410 15,900 2,580 Climbing Albuquerque Center
10:35AM 33.1819 -112.2311 239° Southwest 366 421 18,200 2,400 Climbing Albuquerque Center
10:36AM 33.1300 -112.3328 239° Southwest 373 429 20,800 2,160 Climbing Albuquerque Center
10:37AM 33.0761 -112.4386 239° Southwest 375 432 22,700 1,800 Climbing Albuquerque Center
10:38AM 33.0200 -112.5492 239° Southwest 389 448 24,500 1,800 Climbing Albuquerque Center
10:39AM 32.9639 -112.6614 239° Southwest 394 453 26,400 1,800 Climbing Albuquerque Center
10:40AM 32.9378 -112.8111 258° West 390 449 28,300 1,800 Climbing Albuquerque Center
10:41AM 32.9219 -112.9383 262° West 391 450 30,100 1,800 Climbing Albuquerque Center
10:42AM 32.9047 -113.0614 261° West 386 444 32,000 900 Climbing Albuquerque Center
10:43AM 32.8875 -113.1819 260° West 377 434 32,000  Level Albuquerque Center
10:44AM 32.8697 -113.3053 260° West 379 436 32,000  Level Albuquerque Center
10:45AM 32.8531 -113.4303 261° West 383 441 32,000  Level Albuquerque Center
10:46AM 32.8314 -113.5814 260° West 387 445 32,000  Level Albuquerque Center
10:47AM 32.8136 -113.7078 261° West 389 448 32,000  Level Albuquerque Center
10:48AM 32.7950 -113.8344 260° West 391 450 32,000  Level Albuquerque Center
10:49AM 32.7783 -113.9597 261° West 387 445 32,000  Level Albuquerque Center
10:50AM 32.7728 -114.0828 267° West 382 440 32,000  Level Los Angeles Center
10:51AM 32.7742 -114.2086 271° West 381 438 32,000  Level Los Angeles Center
10:52AM 32.7700 -114.3581 268° West 379 436 32,000  Level Los Angeles Center
10:53AM 32.7683 -114.4850 269° West 382 440 32,000 -120 Level Los Angeles Center
10:54AM 32.7669 -114.5858 269° West 381 438 31,800 -780 Descending Los Angeles Center
10:55AM 32.7644 -114.7353 269° West 379 436 30,500 -1,140 Descending Los Angeles Center
10:56AM 32.7617 -114.8542 268° West 367 422 29,500 -960 Descending Los Angeles Center
10:57AM 32.7592 -114.9756 269° West 367 422 28,600 -900 Descending Los Angeles Center
10:58AM 32.7572 -115.1044 269° West 384 442 27,700 -900 Descending Los Angeles Center
10:59AM 32.7542 -115.2344 268° West 393 452 26,800 -1,080 Descending Los Angeles Center
11:00AM 32.7581 -115.3911 272° West 396 456 25,500 -1,140 Descending Los Angeles Center
11:02AM 32.7600 -115.5186 271° West 391 450 24,500 -1,020 Descending Los Angeles Center
11:03AM 32.7614 -115.6436 271° West 384 442 23,500 -1,020 Descending Los Angeles Center
11:04AM 32.7631 -115.7700 271° West 383 441 22,500 -1,620 Descending Los Angeles Center
11:05AM 32.7650 -115.8967 271° West 383 441 20,300 -2,100 Descending Los Angeles Center
11:06AM 32.7661 -116.0183 271° West 376 433 18,200 -2,100 Descending Los Angeles Center
11:07AM 32.7675 -116.1344 271° West 361 415 16,000 -2,160 Descending Los Angeles Center
11:08AM 32.7689 -116.2478 271° West 348 400 13,900 -2,100 Descending Los Angeles Center
11:09AM 32.7697 -116.3594 271° West 339 390 11,800 -1,980 Descending Los Angeles Center
11:10AM 32.7697 -116.4706 270° West 332 382 9,900 -1,500 Descending Los Angeles Center
11:11AM 32.7503 -116.5622 256° West 291 335 8,800 -1,440 Descending Los Angeles Center
11:12AM 32.6675 -116.6275 214° Southwest 297 342 7,000 -1,380 Descending Los Angeles Center
11:13AM 32.6283 -116.7014 238° Southwest 277 319 6,000 -540 Descending Los Angeles Center
11:14AM 32.6228 -116.7917 266° West 275 316 6,000 -60 Level Los Angeles Center
11:15AM 32.6167 -116.9000 266° West 283 326 5,900  Descending Southern California TRACON
11:16AM 32.6167 -116.9833 270° West 280 322 6,000 -120 Climbing Southern California TRACON
11:17AM 32.6333 -117.0833 281° West 274 315 5,700 -600 Descending Southern California TRACON
11:18AM 32.6500 -117.1500 287° West 255 293 4,900 -600 Descending Southern California TRACON
11:19AM 32.6833 -117.2333 295° West 241 277 4,600 -600 Descending Southern California TRACON
11:20AM 32.7000 -117.3000 287° West 229 264 3,800 -900 Descending Southern California TRACON
11:21AM 32.7097 -117.3811 278° West 223 257 2,700 -900 Descending Los Angeles Center
11:22AM 32.7606 -117.3867 355° North 213 245 2,000 -360 Descending Los Angeles Center
11:23AM 32.7658 -117.3247 84° East 201 231 2,000 -360 Level Los Angeles Center
11:24AM 32.7503 -117.2656 107° East 192 221 1,300 -840 Descending Los Angeles Center
11:25AM 32.7400 -117.2206 105° East 153 176 400 4,200 Descending Los Angeles Center
11:26AM 32.7306 -117.1736 103° East 138 159 10,000 9,240 Climbing Los Angeles Center